createdAt,value
2023-02-24T00:01:37.871Z,1.40
2023-02-24T00:04:07.933Z,0.00
2023-02-24T00:06:37.397Z,0.00
2023-02-24T00:09:08.609Z,0.00
2023-02-24T00:11:36.541Z,0.00
2023-02-24T00:14:05.868Z,1.00
2023-02-24T00:16:34.287Z,0.00
2023-02-24T00:19:02.281Z,0.40
2023-02-24T00:21:30.160Z,1.00
2023-02-24T00:23:59.431Z,0.00
2023-02-24T00:26:27.121Z,0.00
2023-02-24T00:28:55.152Z,1.00
2023-02-24T00:31:24.710Z,0.00
2023-02-24T00:33:56.728Z,0.00
2023-02-24T00:36:25.201Z,1.00
2023-02-24T00:38:56.249Z,1.00
2023-02-24T00:41:23.968Z,0.00
2023-02-24T00:43:51.549Z,1.00
2023-02-24T00:46:19.230Z,1.00
2023-02-24T00:48:47.218Z,1.80
2023-02-24T00:51:17.193Z,1.00
2023-02-24T00:53:44.826Z,0.00
2023-02-24T00:56:13.290Z,0.00
2023-02-24T00:58:40.931Z,1.00
2023-02-24T01:01:09.326Z,1.00
2023-02-24T01:03:37.378Z,2.60
2023-02-24T01:06:06.654Z,2.60
2023-02-24T01:08:36.613Z,1.40
2023-02-24T01:11:22.340Z,1.00
2023-02-24T01:13:50.508Z,1.00
2023-02-24T01:16:20.031Z,3.00
2023-02-24T01:18:48.754Z,4.00
2023-02-24T01:21:16.333Z,0.00
2023-02-24T01:23:43.946Z,0.80
2023-02-24T01:26:11.924Z,0.20
2023-02-24T01:28:39.730Z,0.40
2023-02-24T01:31:07.761Z,3.60
2023-02-24T01:33:37.390Z,1.40
2023-02-24T01:36:06.051Z,1.00
2023-02-24T01:38:34.010Z,1.00
2023-02-24T01:41:05.129Z,0.00
2023-02-24T01:43:32.719Z,1.00
2023-02-24T01:46:00.367Z,0.00
2023-02-24T01:48:27.980Z,1.00
2023-02-24T01:50:56.005Z,0.00
2023-02-24T01:53:23.614Z,0.20
2023-02-24T01:55:51.302Z,0.80
2023-02-24T01:58:18.935Z,0.40
2023-02-24T02:00:47.870Z,0.00
2023-02-24T02:03:16.193Z,0.40
2023-02-24T02:05:45.369Z,1.00
2023-02-24T02:08:13.203Z,0.00
2023-02-24T02:10:40.815Z,1.00
2023-02-24T02:13:08.410Z,1.00
2023-02-24T02:15:36.446Z,1.40
2023-02-24T02:18:04.298Z,0.00
2023-02-24T02:20:31.915Z,0.00
2023-02-24T02:23:00.636Z,1.00
2023-02-24T02:25:28.395Z,0.80
2023-02-24T02:27:58.608Z,0.00
2023-02-24T02:30:26.456Z,0.00
2023-02-24T02:32:55.002Z,0.40
2023-02-24T02:35:22.745Z,1.00
2023-02-24T02:37:50.802Z,1.00
2023-02-24T02:40:20.876Z,0.20
2023-02-24T02:42:48.438Z,0.20
2023-02-24T02:45:16.045Z,0.00
2023-02-24T02:47:43.667Z,0.00
2023-02-24T02:50:11.251Z,1.00
2023-02-24T02:52:39.231Z,0.00
2023-02-24T02:55:07.383Z,0.20
2023-02-24T02:57:35.491Z,0.60
2023-02-24T03:00:08.519Z,0.80
2023-02-24T03:02:40.179Z,1.00
2023-02-24T03:05:10.076Z,1.00
2023-02-24T03:07:37.752Z,0.00
2023-02-24T03:10:09.759Z,0.00
2023-02-24T03:12:37.489Z,1.00
2023-02-24T03:15:05.781Z,0.00
2023-02-24T03:17:33.836Z,0.40
2023-02-24T03:20:01.892Z,1.00
2023-02-24T03:22:29.501Z,0.80
2023-02-24T03:24:57.094Z,0.80
2023-02-24T03:27:26.450Z,1.00
2023-02-24T03:29:54.305Z,0.20
2023-02-24T03:32:22.017Z,0.80
2023-02-24T03:34:49.802Z,0.00
2023-02-24T03:37:17.452Z,0.40
2023-02-24T03:39:47.556Z,0.60
2023-02-24T03:42:16.007Z,0.60
2023-02-24T03:44:44.180Z,1.00
2023-02-24T03:47:11.744Z,0.00
2023-02-24T03:49:43.703Z,0.80
2023-02-24T03:52:12.998Z,1.00
2023-02-24T03:54:42.977Z,0.40
2023-02-24T03:57:10.614Z,1.00
2023-02-24T03:59:38.189Z,0.60
2023-02-24T04:02:05.911Z,0.00
2023-02-24T04:04:34.053Z,0.80
2023-02-24T04:07:01.678Z,0.40
2023-02-24T04:09:29.426Z,1.00
2023-02-24T04:11:57.048Z,1.00
2023-02-24T04:14:25.677Z,0.80
2023-02-24T04:16:54.235Z,0.40
2023-02-24T04:19:21.868Z,0.00
2023-02-24T04:21:49.710Z,0.00
2023-02-24T04:24:18.050Z,1.00
2023-02-24T04:26:48.566Z,1.00
2023-02-24T04:29:18.563Z,0.40
2023-02-24T04:31:46.522Z,0.00
2023-02-24T04:34:20.234Z,0.00
2023-02-24T04:36:49.724Z,1.00
2023-02-24T04:39:18.977Z,0.00
2023-02-24T04:41:49.485Z,0.00
2023-02-24T04:44:18.269Z,0.00
2023-02-24T04:46:46.006Z,0.80
2023-02-24T04:49:13.764Z,1.00
2023-02-24T04:51:43.359Z,0.00
2023-02-24T04:54:11.164Z,0.00
2023-02-24T04:56:40.909Z,0.00
2023-02-24T04:59:10.369Z,0.60
2023-02-24T05:01:39.866Z,1.00
2023-02-24T05:04:08.028Z,0.00
2023-02-24T05:06:35.652Z,0.00
2023-02-24T05:09:11.443Z,1.00
2023-02-24T05:11:42.362Z,0.40
2023-02-24T05:14:10.091Z,0.00
2023-02-24T05:16:37.880Z,0.00
2023-02-24T05:19:22.732Z,0.00
2023-02-24T05:21:50.318Z,0.00
2023-02-24T05:24:17.872Z,0.20
2023-02-24T05:26:45.587Z,0.00
2023-02-24T05:29:13.716Z,0.00
2023-02-24T05:31:41.429Z,0.00
2023-02-24T05:34:09.163Z,0.00
2023-02-24T05:36:37.073Z,0.00
2023-02-24T05:39:07.846Z,1.00
2023-02-24T05:41:36.211Z,0.00
2023-02-24T05:44:04.940Z,0.00
2023-02-24T05:46:32.809Z,0.00
2023-02-24T05:49:00.868Z,0.00
2023-02-24T05:51:35.244Z,0.00
2023-02-24T05:54:04.715Z,0.00
2023-02-24T05:56:32.675Z,0.00
2023-02-24T05:59:03.442Z,0.00
2023-02-24T06:01:32.982Z,0.00
2023-02-24T06:04:07.157Z,0.00
2023-02-24T06:06:36.367Z,0.00
2023-02-24T06:09:08.982Z,0.00
2023-02-24T06:11:37.822Z,0.00
2023-02-24T06:14:07.144Z,0.00
2023-02-24T06:16:34.933Z,1.00
2023-02-24T06:19:02.511Z,0.00
2023-02-24T06:21:30.996Z,0.00
2023-02-24T06:23:58.791Z,0.00
2023-02-24T06:26:29.938Z,0.00
2023-02-24T06:28:58.289Z,1.00
2023-02-24T06:31:26.736Z,0.80
2023-02-24T06:33:54.877Z,0.60
2023-02-24T06:36:23.001Z,0.00
2023-02-24T06:38:52.765Z,0.00
2023-02-24T06:41:20.789Z,0.00
2023-02-24T06:43:49.233Z,1.00
2023-02-24T06:46:17.291Z,0.00
2023-02-24T06:48:45.072Z,0.00
2023-02-24T06:51:13.797Z,0.00
2023-02-24T06:53:43.401Z,1.00
2023-02-24T06:56:15.163Z,0.00
2023-02-24T06:58:44.239Z,1.00
2023-02-24T07:01:13.139Z,0.00
2023-02-24T07:03:40.954Z,0.00
2023-02-24T07:06:24.011Z,1.00
2023-02-24T07:08:52.559Z,0.00
2023-02-24T07:11:20.743Z,1.40
2023-02-24T07:13:48.629Z,0.00
2023-02-24T07:16:16.749Z,1.00
2023-02-24T07:18:44.405Z,0.60
2023-02-24T07:21:13.096Z,1.00
2023-02-24T07:23:40.912Z,0.00
2023-02-24T07:26:10.381Z,0.00
2023-02-24T07:28:40.168Z,0.00
2023-02-24T07:31:08.730Z,1.80
2023-02-24T07:33:37.222Z,0.00
2023-02-24T07:36:08.814Z,0.20
2023-02-24T07:38:37.370Z,1.00
2023-02-24T07:41:06.707Z,0.80
2023-02-24T07:43:34.456Z,0.00
2023-02-24T07:46:02.486Z,1.00
2023-02-24T07:48:30.168Z,1.00
2023-02-24T07:50:59.657Z,1.00
2023-02-24T07:53:28.018Z,0.00
2023-02-24T07:55:55.682Z,1.40
2023-02-24T07:58:23.588Z,1.00
2023-02-24T08:00:59.587Z,0.00
2023-02-24T08:03:27.496Z,0.80
2023-02-24T08:05:55.308Z,1.00
2023-02-24T08:08:26.208Z,0.80
2023-02-24T08:11:04.386Z,0.20
2023-02-24T08:13:37.587Z,0.00
2023-02-24T08:16:05.479Z,1.00
2023-02-24T08:18:37.804Z,1.00
2023-02-24T08:21:06.735Z,0.00
2023-02-24T08:23:44.764Z,1.00
2023-02-24T08:26:13.075Z,1.40
2023-02-24T08:28:41.143Z,0.00
2023-02-24T08:31:09.268Z,0.80
2023-02-24T08:33:37.807Z,0.00
2023-02-24T08:36:05.475Z,0.80
2023-02-24T08:38:42.610Z,0.00
2023-02-24T08:41:11.421Z,0.00
2023-02-24T08:43:39.275Z,1.40
2023-02-24T08:46:12.807Z,0.80
2023-02-24T08:48:42.743Z,0.00
2023-02-24T08:51:10.518Z,0.00
2023-02-24T08:53:40.850Z,0.00
2023-02-24T08:56:11.784Z,1.00
2023-02-24T08:58:41.389Z,0.00
2023-02-24T09:01:19.054Z,3.00
2023-02-24T09:03:48.039Z,0.40
2023-02-24T09:06:17.134Z,0.00
2023-02-24T09:08:44.868Z,1.00
2023-02-24T09:11:14.160Z,1.00
2023-02-24T09:13:51.936Z,1.00
2023-02-24T09:16:20.259Z,0.00
2023-02-24T09:19:08.119Z,1.00
2023-02-24T09:21:55.807Z,1.00
2023-02-24T09:24:28.818Z,0.60
2023-02-24T09:26:58.820Z,0.80
2023-02-24T09:29:34.862Z,1.00
2023-02-24T09:32:06.237Z,1.00
2023-02-24T09:34:34.274Z,1.80
2023-02-24T09:37:05.302Z,0.60
2023-02-24T09:39:53.916Z,3.00
2023-02-24T09:42:34.450Z,3.00
2023-02-24T09:45:04.290Z,1.00
2023-02-24T09:47:51.396Z,1.40
2023-02-24T09:50:40.374Z,4.00
2023-02-24T09:53:17.820Z,3.00
2023-02-24T09:56:00.695Z,0.00
2023-02-24T09:58:41.819Z,3.40
2023-02-24T10:01:22.319Z,3.00
2023-02-24T10:03:51.897Z,2.60
2023-02-24T10:06:21.242Z,1.00
2023-02-24T10:08:49.949Z,1.00
2023-02-24T10:11:32.982Z,3.00
2023-02-24T10:14:03.777Z,0.80
2023-02-24T10:16:42.050Z,1.00
2023-02-24T10:19:15.550Z,0.00
2023-02-24T10:21:49.806Z,1.00
2023-02-24T10:24:19.783Z,1.00
2023-02-24T10:27:00.152Z,1.00
2023-02-24T10:29:29.818Z,0.80
2023-02-24T10:31:58.215Z,0.00
2023-02-24T10:34:32.215Z,0.40
2023-02-24T10:37:01.590Z,0.40
2023-02-24T10:39:33.750Z,0.00
2023-02-24T10:42:16.013Z,0.20
2023-02-24T10:45:01.402Z,0.00
2023-02-24T10:47:32.531Z,0.00
2023-02-24T10:50:00.546Z,0.00
2023-02-24T10:52:45.805Z,0.00
2023-02-24T10:55:28.549Z,0.20
2023-02-24T10:58:06.445Z,0.20
2023-02-24T11:00:52.184Z,0.20
2023-02-24T11:03:36.100Z,0.60
2023-02-24T11:06:20.615Z,0.00
2023-02-24T11:09:02.919Z,0.00
2023-02-24T11:11:31.214Z,0.00
2023-02-24T11:14:16.494Z,0.00
2023-02-24T11:17:01.843Z,0.40
2023-02-24T11:19:30.259Z,0.00
2023-02-24T11:21:58.088Z,0.80
2023-02-24T11:24:26.182Z,0.00
2023-02-24T11:26:54.262Z,0.00
2023-02-24T11:29:22.335Z,0.60
2023-02-24T11:31:52.889Z,0.20
2023-02-24T11:34:20.728Z,0.00
2023-02-24T11:36:48.609Z,0.00
2023-02-24T11:39:21.190Z,0.00
2023-02-24T11:41:51.124Z,0.00
2023-02-24T11:44:20.556Z,0.00
2023-02-24T11:46:48.409Z,0.80
2023-02-24T11:49:16.248Z,0.00
2023-02-24T11:51:45.050Z,0.40
2023-02-24T11:54:12.992Z,0.00
2023-02-24T11:56:42.825Z,0.00
2023-02-24T11:59:11.440Z,0.00
2023-02-24T12:01:40.559Z,1.00
2023-02-24T12:04:08.449Z,0.00
2023-02-24T12:06:36.697Z,0.00
2023-02-24T12:09:07.999Z,0.00
2023-02-24T12:11:35.955Z,0.20
2023-02-24T12:14:04.022Z,1.40
2023-02-24T12:16:33.480Z,3.00
2023-02-24T12:19:01.385Z,1.00
2023-02-24T12:21:31.036Z,1.80
2023-02-24T12:23:58.737Z,0.00
2023-02-24T12:26:26.712Z,0.80
2023-02-24T12:28:54.570Z,0.40
2023-02-24T12:31:22.680Z,1.00
2023-02-24T12:33:51.686Z,1.80
2023-02-24T12:36:21.279Z,1.40
2023-02-24T12:38:49.082Z,3.00
2023-02-24T12:41:16.935Z,3.20
2023-02-24T12:43:45.688Z,1.00
2023-02-24T12:46:13.931Z,4.00
2023-02-24T12:48:41.773Z,3.00
2023-02-24T12:51:09.723Z,3.00
2023-02-24T12:53:37.577Z,3.80
2023-02-24T12:56:05.727Z,1.00
2023-02-24T12:58:34.760Z,0.40
2023-02-24T13:01:02.787Z,4.80
2023-02-24T13:03:30.721Z,0.00
2023-02-24T13:05:58.792Z,5.20
2023-02-24T13:08:26.671Z,6.80
2023-02-24T13:10:54.995Z,3.80
2023-02-24T13:13:23.453Z,4.00
2023-02-24T13:15:51.440Z,5.60
2023-02-24T13:18:19.207Z,8.20
2023-02-24T13:20:47.224Z,6.60
2023-02-24T13:23:15.539Z,3.40
2023-02-24T13:25:43.459Z,5.20
2023-02-24T13:28:11.458Z,9.00
2023-02-24T13:30:39.876Z,5.20
2023-02-24T13:33:07.766Z,5.20
2023-02-24T13:35:36.298Z,3.00
2023-02-24T13:38:04.213Z,3.00
2023-02-24T13:40:32.214Z,3.00
2023-02-24T13:43:00.307Z,4.00
2023-02-24T13:45:29.319Z,5.20
2023-02-24T13:48:01.356Z,3.00
2023-02-24T13:50:30.260Z,3.00
2023-02-24T13:52:58.035Z,4.00
2023-02-24T13:55:25.963Z,3.20
2023-02-24T13:57:53.922Z,0.40
2023-02-24T14:00:23.241Z,4.00
2023-02-24T14:02:53.254Z,2.20
2023-02-24T14:05:21.178Z,5.20
2023-02-24T14:07:49.089Z,2.80
2023-02-24T14:10:18.884Z,1.80
2023-02-24T14:12:47.518Z,5.60
2023-02-24T14:15:15.431Z,3.80
2023-02-24T14:17:43.623Z,5.80
2023-02-24T14:20:11.980Z,3.00
2023-02-24T14:22:39.745Z,6.80
2023-02-24T14:25:09.825Z,4.80
2023-02-24T14:27:37.861Z,6.80
2023-02-24T14:30:05.785Z,7.00
2023-02-24T14:32:33.665Z,3.00
2023-02-24T14:35:01.644Z,5.20
2023-02-24T14:37:29.977Z,6.60
2023-02-24T14:39:58.424Z,6.20
2023-02-24T14:42:26.394Z,1.80
2023-02-24T14:44:54.265Z,8.00
2023-02-24T14:47:22.069Z,3.00
2023-02-24T14:49:50.297Z,6.40
2023-02-24T14:52:18.168Z,3.00
2023-02-24T14:54:46.132Z,6.00
2023-02-24T14:57:14.114Z,4.00
2023-02-24T14:59:42.125Z,0.40
2023-02-24T15:02:10.957Z,6.00
2023-02-24T15:04:39.835Z,5.20
2023-02-24T15:07:07.845Z,4.00
2023-02-24T15:09:35.689Z,4.40
2023-02-24T15:12:03.636Z,2.20
2023-02-24T15:14:32.350Z,5.20
2023-02-24T15:17:00.749Z,2.60
2023-02-24T15:19:28.830Z,6.00
2023-02-24T15:21:57.005Z,3.40
2023-02-24T15:24:24.924Z,4.00
2023-02-24T15:26:53.760Z,0.40
2023-02-24T15:29:21.703Z,6.00
2023-02-24T15:31:49.809Z,4.40
2023-02-24T15:34:17.831Z,7.40
2023-02-24T15:36:45.723Z,3.00
2023-02-24T15:39:14.605Z,7.40
2023-02-24T15:41:42.487Z,0.00
2023-02-24T15:44:10.684Z,6.00
2023-02-24T15:46:38.570Z,4.00
2023-02-24T15:49:06.643Z,7.00
2023-02-24T15:51:35.285Z,1.40
2023-02-24T15:54:03.185Z,3.60
2023-02-24T15:56:31.273Z,6.00
2023-02-24T15:59:02.743Z,6.20
2023-02-24T16:01:30.849Z,3.20
2023-02-24T16:03:59.563Z,6.20
2023-02-24T16:06:28.669Z,7.00
2023-02-24T16:08:56.512Z,6.20
2023-02-24T16:11:24.483Z,3.80
2023-02-24T16:13:52.402Z,6.40
2023-02-24T16:16:21.298Z,9.20
2023-02-24T16:18:49.872Z,4.80
2023-02-24T16:21:17.875Z,9.00
2023-02-24T16:23:45.753Z,2.60
2023-02-24T16:26:13.789Z,8.20
2023-02-24T16:28:43.776Z,6.60
2023-02-24T16:31:11.916Z,6.00
2023-02-24T16:33:53.719Z,7.80
2023-02-24T16:36:22.301Z,6.40
2023-02-24T16:38:52.199Z,7.00
2023-02-24T16:41:20.189Z,3.40
2023-02-24T16:43:48.185Z,6.60
2023-02-24T16:46:16.325Z,3.80
2023-02-24T16:48:44.837Z,6.00
2023-02-24T16:51:13.132Z,6.60
2023-02-24T16:53:41.264Z,7.00
2023-02-24T16:56:09.172Z,4.00
2023-02-24T16:58:36.906Z,6.00
2023-02-24T17:01:04.936Z,9.80
2023-02-24T17:03:33.461Z,6.20
2023-02-24T17:06:01.201Z,7.80
2023-02-24T17:08:29.525Z,3.00
2023-02-24T17:10:57.789Z,8.20
2023-02-24T17:13:25.663Z,9.60
2023-02-24T17:15:56.245Z,6.00
2023-02-24T17:18:24.002Z,10.00
2023-02-24T17:20:51.840Z,8.60
2023-02-24T17:23:19.691Z,9.20
2023-02-24T17:25:47.552Z,8.20
2023-02-24T17:28:16.069Z,7.00
2023-02-24T17:30:44.179Z,4.80
2023-02-24T17:33:14.495Z,4.00
2023-02-24T17:35:42.375Z,6.20
2023-02-24T17:38:10.312Z,6.00
2023-02-24T17:40:38.948Z,6.00
2023-02-24T17:43:07.144Z,2.60
2023-02-24T17:45:35.449Z,7.40
2023-02-24T17:48:03.256Z,5.60
2023-02-24T17:50:31.158Z,6.80
2023-02-24T17:53:01.136Z,7.00
2023-02-24T17:55:28.976Z,6.00
2023-02-24T17:57:57.341Z,4.80
2023-02-24T18:00:25.461Z,4.00
2023-02-24T18:02:53.546Z,6.40
2023-02-24T18:05:22.331Z,9.00
2023-02-24T18:07:50.289Z,1.00
2023-02-24T18:10:18.264Z,3.20
2023-02-24T18:12:46.051Z,7.00
2023-02-24T18:15:14.432Z,5.20
2023-02-24T18:17:42.712Z,6.00
2023-02-24T18:20:12.460Z,1.00
2023-02-24T18:22:40.372Z,4.40
2023-02-24T18:25:08.356Z,4.00
2023-02-24T18:27:36.170Z,4.00
2023-02-24T18:30:05.031Z,3.60
2023-02-24T18:32:33.385Z,3.00
2023-02-24T18:35:01.371Z,1.00
2023-02-24T18:37:29.753Z,1.40
2023-02-24T18:39:57.810Z,3.00
2023-02-24T18:42:26.299Z,1.00
2023-02-24T18:44:54.243Z,3.40
2023-02-24T18:47:22.106Z,3.80
2023-02-24T18:49:49.966Z,3.00
2023-02-24T18:52:17.830Z,1.00
2023-02-24T18:54:46.285Z,0.00
2023-02-24T18:57:14.110Z,1.40
2023-02-24T18:59:42.506Z,0.00
2023-02-24T19:02:10.392Z,2.20
2023-02-24T19:04:38.360Z,0.40
2023-02-24T19:07:08.190Z,0.40
2023-02-24T19:09:35.999Z,1.00
2023-02-24T19:12:03.847Z,0.00
2023-02-24T19:14:32.137Z,0.80
2023-02-24T19:17:01.404Z,1.00
2023-02-24T19:19:30.039Z,3.20
2023-02-24T19:21:58.454Z,1.00
2023-02-24T19:24:26.438Z,1.00
2023-02-24T19:26:54.375Z,1.80
2023-02-24T19:29:22.500Z,0.80
2023-02-24T19:31:54.678Z,1.00
2023-02-24T19:34:22.993Z,0.00
2023-02-24T19:36:51.027Z,0.00
2023-02-24T19:39:18.876Z,0.00
2023-02-24T19:41:49.457Z,0.00
2023-02-24T19:44:19.801Z,0.00
2023-02-24T19:46:47.802Z,0.00
2023-02-24T19:49:15.708Z,0.00
2023-02-24T19:51:46.622Z,0.00
2023-02-24T19:54:16.276Z,0.00
2023-02-24T19:56:44.862Z,0.80
2023-02-24T19:59:12.721Z,1.00
2023-02-24T20:01:41.963Z,1.40
2023-02-24T20:04:10.107Z,0.80
2023-02-24T20:06:38.026Z,0.00
2023-02-24T20:09:06.675Z,1.00
2023-02-24T20:11:34.706Z,3.00
2023-02-24T20:14:02.675Z,0.00
2023-02-24T20:16:32.848Z,1.00
2023-02-24T20:19:01.000Z,0.00
2023-02-24T20:21:29.784Z,1.40
2023-02-24T20:23:57.671Z,1.00
2023-02-24T20:26:26.249Z,1.80
2023-02-24T20:28:54.197Z,1.00
2023-02-24T20:31:22.622Z,1.00
2023-02-24T20:33:51.250Z,2.20
2023-02-24T20:36:19.098Z,4.00
2023-02-24T20:38:46.949Z,1.00
2023-02-24T20:41:14.798Z,4.00
2023-02-24T20:43:42.593Z,1.00
2023-02-24T20:46:10.735Z,2.20
2023-02-24T20:48:38.929Z,1.00
2023-02-24T20:51:06.813Z,1.40
2023-02-24T20:53:37.971Z,1.00
2023-02-24T20:56:14.577Z,2.20
2023-02-24T20:58:42.712Z,1.00
2023-02-24T21:01:10.578Z,1.00
2023-02-24T21:03:38.419Z,0.60
2023-02-24T21:06:10.126Z,0.00
2023-02-24T21:08:38.879Z,1.00
2023-02-24T21:11:10.933Z,0.00
2023-02-24T21:13:38.929Z,0.40
2023-02-24T21:16:06.792Z,0.20
2023-02-24T21:18:35.114Z,1.00
2023-02-24T21:21:02.975Z,0.80
2023-02-24T21:23:31.023Z,0.00
2023-02-24T21:25:58.966Z,0.00
2023-02-24T21:28:26.803Z,0.80
2023-02-24T21:30:55.352Z,0.00
2023-02-24T21:33:23.622Z,0.00
2023-02-24T21:35:51.672Z,0.20
2023-02-24T21:38:19.552Z,0.00
2023-02-24T21:40:49.352Z,0.40
2023-02-24T21:43:18.062Z,1.00
2023-02-24T21:45:48.265Z,1.00
2023-02-24T21:48:16.199Z,0.00
2023-02-24T21:50:44.141Z,1.00
2023-02-24T21:53:13.435Z,0.20
2023-02-24T21:55:41.338Z,0.40
2023-02-24T21:58:09.664Z,0.00
2023-02-24T22:00:37.760Z,0.00
2023-02-24T22:03:05.693Z,0.00
2023-02-24T22:05:34.092Z,0.60
2023-02-24T22:08:02.215Z,0.00
2023-02-24T22:10:30.556Z,1.00
2023-02-24T22:12:58.689Z,0.60
2023-02-24T22:15:27.026Z,0.00
2023-02-24T22:17:54.991Z,0.00
2023-02-24T22:20:22.788Z,0.00
2023-02-24T22:22:51.165Z,0.80
2023-02-24T22:25:19.216Z,0.00
2023-02-24T22:27:47.146Z,0.00
2023-02-24T22:30:15.514Z,0.40
2023-02-24T22:32:43.446Z,1.60
2023-02-24T22:35:11.638Z,0.00
2023-02-24T22:37:41.613Z,0.00
2023-02-24T22:40:09.498Z,1.00
2023-02-24T22:42:37.482Z,0.60
2023-02-24T22:45:05.133Z,0.00
2023-02-24T22:47:33.477Z,0.00
2023-02-24T22:50:01.560Z,0.20
2023-02-24T22:52:29.345Z,1.00
2023-02-24T22:54:57.244Z,1.00
2023-02-24T22:57:24.961Z,0.00
2023-02-24T22:59:53.684Z,1.00
2023-02-24T23:02:23.232Z,0.60
2023-02-24T23:04:51.657Z,0.00
2023-02-24T23:07:19.389Z,0.00
2023-02-24T23:09:53.172Z,0.00
2023-02-24T23:12:21.379Z,0.00
2023-02-24T23:14:49.559Z,0.00
2023-02-24T23:17:17.551Z,0.40
2023-02-24T23:19:45.294Z,0.00
2023-02-24T23:22:14.865Z,1.00
2023-02-24T23:24:42.996Z,0.00
2023-02-24T23:27:10.938Z,0.00
2023-02-24T23:29:38.597Z,0.00
2023-02-24T23:32:06.653Z,0.20
2023-02-24T23:34:34.428Z,1.00
2023-02-24T23:37:02.572Z,0.20
2023-02-24T23:39:30.427Z,0.60
2023-02-24T23:41:58.091Z,0.00
2023-02-24T23:44:26.210Z,0.00
2023-02-24T23:46:53.849Z,0.00
2023-02-24T23:49:21.884Z,1.00
2023-02-24T23:51:49.761Z,0.00
2023-02-24T23:54:17.508Z,1.00
2023-02-24T23:56:45.338Z,0.00
2023-02-24T23:59:13.124Z,0.40
